sensor_id;sensor_type;location;lat;lon;timestamp;temperature;humidity
1948;DHT22;974;52.400;9.818;2023-07-29T00:01:07;19.40;99.90
1948;DHT22;974;52.400;9.818;2023-07-29T00:03:33;19.40;99.90
1948;DHT22;974;52.400;9.818;2023-07-29T00:05:58;19.40;99.90
1948;DHT22;974;52.400;9.818;2023-07-29T00:08:27;19.40;99.90
1948;DHT22;974;52.400;9.818;2023-07-29T00:10:53;19.40;99.90
1948;DHT22;974;52.400;9.818;2023-07-29T00:13:21;19.40;99.90
1948;DHT22;974;52.400;9.818;2023-07-29T00:15:47;19.40;99.90
1948;DHT22;974;52.400;9.818;2023-07-29T00:18:12;19.40;99.90
1948;DHT22;974;52.400;9.818;2023-07-29T00:20:38;19.30;99.90
1948;DHT22;974;52.400;9.818;2023-07-29T00:23:04;19.20;99.90
1948;DHT22;974;52.400;9.818;2023-07-29T00:25:29;19.20;99.90
1948;DHT22;974;52.400;9.818;2023-07-29T00:27:56;19.20;99.90
1948;DHT22;974;52.400;9.818;2023-07-29T00:30:22;19.10;99.90
1948;DHT22;974;52.400;9.818;2023-07-29T00:32:47;19.10;99.90
1948;DHT22;974;52.400;9.818;2023-07-29T00:35:13;19.10;99.90
1948;DHT22;974;52.400;9.818;2023-07-29T00:37:39;19.00;99.90
1948;DHT22;974;52.400;9.818;2023-07-29T00:40:14;19.00;99.90
1948;DHT22;974;52.400;9.818;2023-07-29T00:42:41;19.00;99.90
1948;DHT22;974;52.400;9.818;2023-07-29T00:45:10;19.00;99.90
1948;DHT22;974;52.400;9.818;2023-07-29T00:47:37;18.90;99.90
1948;DHT22;974;52.400;9.818;2023-07-29T00:50:03;18.90;99.90
1948;DHT22;974;52.400;9.818;2023-07-29T00:52:29;18.90;99.90
1948;DHT22;974;52.400;9.818;2023-07-29T00:54:57;18.80;99.90
1948;DHT22;974;52.400;9.818;2023-07-29T00:57:26;18.80;99.90
1948;DHT22;974;52.400;9.818;2023-07-29T00:59:56;18.70;99.90
1948;DHT22;974;52.400;9.818;2023-07-29T01:02:22;18.70;99.90
1948;DHT22;974;52.400;9.818;2023-07-29T01:04:56;18.60;99.90
1948;DHT22;974;52.400;9.818;2023-07-29T01:07:41;18.60;99.90
1948;DHT22;974;52.400;9.818;2023-07-29T01:10:20;18.60;99.90
1948;DHT22;974;52.400;9.818;2023-07-29T01:13:05;18.50;99.90
1948;DHT22;974;52.400;9.818;2023-07-29T01:15:52;18.40;99.90
1948;DHT22;974;52.400;9.818;2023-07-29T01:18:30;18.50;99.90
1948;DHT22;974;52.400;9.818;2023-07-29T01:20:59;18.50;99.90
1948;DHT22;974;52.400;9.818;2023-07-29T01:23:28;18.50;99.90
1948;DHT22;974;52.400;9.818;2023-07-29T01:25:54;18.50;99.90
1948;DHT22;974;52.400;9.818;2023-07-29T01:28:23;18.50;99.90
1948;DHT22;974;52.400;9.818;2023-07-29T01:30:52;18.50;99.90
1948;DHT22;974;52.400;9.818;2023-07-29T01:33:26;18.60;99.90
1948;DHT22;974;52.400;9.818;2023-07-29T01:36:02;18.60;99.90
1948;DHT22;974;52.400;9.818;2023-07-29T01:38:33;18.50;99.90
1948;DHT22;974;52.400;9.818;2023-07-29T01:41:06;18.60;99.90
1948;DHT22;974;52.400;9.818;2023-07-29T01:43:33;18.60;99.90
1948;DHT22;974;52.400;9.818;2023-07-29T01:46:00;18.60;99.90
1948;DHT22;974;52.400;9.818;2023-07-29T01:48:26;18.60;99.90
1948;DHT22;974;52.400;9.818;2023-07-29T01:50:53;18.60;99.90
1948;DHT22;974;52.400;9.818;2023-07-29T01:53:18;18.70;99.90
1948;DHT22;974;52.400;9.818;2023-07-29T01:55:45;18.70;99.90
1948;DHT22;974;52.400;9.818;2023-07-29T01:58:10;18.70;99.90
1948;DHT22;974;52.400;9.818;2023-07-29T02:00:36;18.70;99.90
1948;DHT22;974;52.400;9.818;2023-07-29T02:03:02;18.80;99.90
1948;DHT22;974;52.400;9.818;2023-07-29T02:05:27;18.80;99.90
1948;DHT22;974;52.400;9.818;2023-07-29T02:07:53;18.80;99.90
1948;DHT22;974;52.400;9.818;2023-07-29T02:10:19;18.80;99.90
1948;DHT22;974;52.400;9.818;2023-07-29T02:12:47;18.80;99.90
1948;DHT22;974;52.400;9.818;2023-07-29T02:15:12;18.90;99.90
1948;DHT22;974;52.400;9.818;2023-07-29T02:17:42;18.90;99.90
1948;DHT22;974;52.400;9.818;2023-07-29T02:20:11;18.90;99.90
1948;DHT22;974;52.400;9.818;2023-07-29T02:22:39;18.90;99.90
1948;DHT22;974;52.400;9.818;2023-07-29T02:25:05;18.90;99.90
1948;DHT22;974;52.400;9.818;2023-07-29T02:27:33;18.90;99.90
1948;DHT22;974;52.400;9.818;2023-07-29T02:29:59;18.90;99.90
1948;DHT22;974;52.400;9.818;2023-07-29T02:32:27;18.90;99.90
1948;DHT22;974;52.400;9.818;2023-07-29T02:34:56;18.90;99.90
1948;DHT22;974;52.400;9.818;2023-07-29T02:37:21;18.90;99.90
1948;DHT22;974;52.400;9.818;2023-07-29T02:39:47;18.90;99.90
1948;DHT22;974;52.400;9.818;2023-07-29T02:42:15;18.90;99.90
1948;DHT22;974;52.400;9.818;2023-07-29T02:44:41;18.90;99.90
1948;DHT22;974;52.400;9.818;2023-07-29T02:47:10;18.90;99.90
1948;DHT22;974;52.400;9.818;2023-07-29T02:49:35;19.00;99.90
1948;DHT22;974;52.400;9.818;2023-07-29T02:52:01;19.00;99.90
1948;DHT22;974;52.400;9.818;2023-07-29T02:54:26;19.00;99.90
1948;DHT22;974;52.400;9.818;2023-07-29T02:56:52;19.00;99.90
1948;DHT22;974;52.400;9.818;2023-07-29T02:59:18;19.00;99.90
1948;DHT22;974;52.400;9.818;2023-07-29T03:01:43;19.00;99.90
1948;DHT22;974;52.400;9.818;2023-07-29T03:04:09;19.00;99.90
1948;DHT22;974;52.400;9.818;2023-07-29T03:06:34;19.00;99.90
1948;DHT22;974;52.400;9.818;2023-07-29T03:09:00;19.00;99.90
1948;DHT22;974;52.400;9.818;2023-07-29T03:11:25;19.00;99.90
1948;DHT22;974;52.400;9.818;2023-07-29T03:13:51;19.00;99.90
1948;DHT22;974;52.400;9.818;2023-07-29T03:16:17;19.00;99.90
1948;DHT22;974;52.400;9.818;2023-07-29T03:18:44;19.00;99.90
1948;DHT22;974;52.400;9.818;2023-07-29T03:21:10;19.00;99.90
1948;DHT22;974;52.400;9.818;2023-07-29T03:23:37;19.00;99.90
1948;DHT22;974;52.400;9.818;2023-07-29T03:26:03;19.00;99.90
1948;DHT22;974;52.400;9.818;2023-07-29T03:28:37;19.00;99.90
1948;DHT22;974;52.400;9.818;2023-07-29T03:31:03;19.00;99.90
1948;DHT22;974;52.400;9.818;2023-07-29T03:33:28;19.00;99.90
1948;DHT22;974;52.400;9.818;2023-07-29T03:35:54;19.00;99.90
1948;DHT22;974;52.400;9.818;2023-07-29T03:38:19;19.00;99.90
1948;DHT22;974;52.400;9.818;2023-07-29T03:40:45;19.00;99.90
1948;DHT22;974;52.400;9.818;2023-07-29T03:43:11;19.00;99.90
1948;DHT22;974;52.400;9.818;2023-07-29T03:45:37;19.00;99.90
1948;DHT22;974;52.400;9.818;2023-07-29T03:48:04;19.00;99.90
1948;DHT22;974;52.400;9.818;2023-07-29T03:50:29;19.00;99.90
1948;DHT22;974;52.400;9.818;2023-07-29T03:52:56;19.00;99.90
1948;DHT22;974;52.400;9.818;2023-07-29T03:55:22;19.00;99.90
1948;DHT22;974;52.400;9.818;2023-07-29T03:57:47;19.00;99.90
1948;DHT22;974;52.400;9.818;2023-07-29T04:00:13;19.00;99.90
1948;DHT22;974;52.400;9.818;2023-07-29T04:02:42;19.00;99.90
1948;DHT22;974;52.400;9.818;2023-07-29T04:05:08;19.00;99.90
1948;DHT22;974;52.400;9.818;2023-07-29T04:07:37;18.90;99.90
1948;DHT22;974;52.400;9.818;2023-07-29T04:10:03;18.90;99.90
1948;DHT22;974;52.400;9.818;2023-07-29T04:12:30;18.90;99.90
1948;DHT22;974;52.400;9.818;2023-07-29T04:14:55;18.90;99.90
1948;DHT22;974;52.400;9.818;2023-07-29T04:17:21;18.90;99.90
1948;DHT22;974;52.400;9.818;2023-07-29T04:19:47;18.90;99.90
1948;DHT22;974;52.400;9.818;2023-07-29T04:22:12;18.80;99.90
1948;DHT22;974;52.400;9.818;2023-07-29T04:24:38;18.90;99.90
1948;DHT22;974;52.400;9.818;2023-07-29T04:27:04;18.90;99.90
1948;DHT22;974;52.400;9.818;2023-07-29T04:29:29;18.90;99.90
1948;DHT22;974;52.400;9.818;2023-07-29T04:31:55;18.90;99.90
1948;DHT22;974;52.400;9.818;2023-07-29T04:34:21;18.90;99.90
1948;DHT22;974;52.400;9.818;2023-07-29T04:36:47;18.90;99.90
1948;DHT22;974;52.400;9.818;2023-07-29T04:39:13;18.90;99.90
1948;DHT22;974;52.400;9.818;2023-07-29T04:41:38;18.90;99.90
1948;DHT22;974;52.400;9.818;2023-07-29T04:44:04;18.90;99.90
1948;DHT22;974;52.400;9.818;2023-07-29T04:46:30;18.90;99.90
1948;DHT22;974;52.400;9.818;2023-07-29T04:48:56;18.90;99.90
1948;DHT22;974;52.400;9.818;2023-07-29T04:51:21;18.90;99.90
1948;DHT22;974;52.400;9.818;2023-07-29T04:53:47;18.80;99.90
1948;DHT22;974;52.400;9.818;2023-07-29T04:56:16;18.80;99.90
1948;DHT22;974;52.400;9.818;2023-07-29T04:58:41;18.80;99.90
1948;DHT22;974;52.400;9.818;2023-07-29T05:01:07;18.80;99.90
1948;DHT22;974;52.400;9.818;2023-07-29T05:03:33;18.80;99.90
1948;DHT22;974;52.400;9.818;2023-07-29T05:05:59;18.80;99.90
1948;DHT22;974;52.400;9.818;2023-07-29T05:08:26;18.80;99.90
1948;DHT22;974;52.400;9.818;2023-07-29T05:10:52;18.80;99.90
1948;DHT22;974;52.400;9.818;2023-07-29T05:13:18;18.80;99.90
1948;DHT22;974;52.400;9.818;2023-07-29T05:15:48;18.80;99.90
1948;DHT22;974;52.400;9.818;2023-07-29T05:18:14;18.80;99.90
1948;DHT22;974;52.400;9.818;2023-07-29T05:20:39;18.80;99.90
1948;DHT22;974;52.400;9.818;2023-07-29T05:23:05;18.80;99.90
1948;DHT22;974;52.400;9.818;2023-07-29T05:25:33;18.80;99.90
1948;DHT22;974;52.400;9.818;2023-07-29T05:28:00;18.80;99.90
1948;DHT22;974;52.400;9.818;2023-07-29T05:30:26;18.80;99.90
1948;DHT22;974;52.400;9.818;2023-07-29T05:32:55;18.80;99.90
1948;DHT22;974;52.400;9.818;2023-07-29T05:35:21;18.80;99.90
1948;DHT22;974;52.400;9.818;2023-07-29T05:37:46;18.80;99.90
1948;DHT22;974;52.400;9.818;2023-07-29T05:40:11;18.80;99.90
1948;DHT22;974;52.400;9.818;2023-07-29T05:42:37;18.80;99.90
1948;DHT22;974;52.400;9.818;2023-07-29T05:45:03;18.80;99.90
1948;DHT22;974;52.400;9.818;2023-07-29T05:47:28;18.80;99.90
1948;DHT22;974;52.400;9.818;2023-07-29T05:49:54;18.80;99.90
1948;DHT22;974;52.400;9.818;2023-07-29T05:52:20;18.90;99.90
1948;DHT22;974;52.400;9.818;2023-07-29T05:54:45;18.90;99.90
1948;DHT22;974;52.400;9.818;2023-07-29T05:57:11;18.90;99.90
1948;DHT22;974;52.400;9.818;2023-07-29T05:59:37;19.00;99.90
1948;DHT22;974;52.400;9.818;2023-07-29T06:02:06;19.00;99.90
1948;DHT22;974;52.400;9.818;2023-07-29T06:04:31;19.00;99.90
1948;DHT22;974;52.400;9.818;2023-07-29T06:07:00;19.00;99.90
1948;DHT22;974;52.400;9.818;2023-07-29T06:09:25;19.00;99.90
1948;DHT22;974;52.400;9.818;2023-07-29T06:11:51;19.10;99.90
1948;DHT22;974;52.400;9.818;2023-07-29T06:14:17;19.10;99.90
1948;DHT22;974;52.400;9.818;2023-07-29T06:16:42;19.00;99.90
1948;DHT22;974;52.400;9.818;2023-07-29T06:19:08;19.00;99.90
1948;DHT22;974;52.400;9.818;2023-07-29T06:21:35;19.00;99.90
1948;DHT22;974;52.400;9.818;2023-07-29T06:24:03;19.00;99.90
1948;DHT22;974;52.400;9.818;2023-07-29T06:26:32;19.00;99.90
1948;DHT22;974;52.400;9.818;2023-07-29T06:28:57;19.00;99.90
1948;DHT22;974;52.400;9.818;2023-07-29T06:31:23;19.00;99.90
1948;DHT22;974;52.400;9.818;2023-07-29T06:33:49;19.00;99.90
1948;DHT22;974;52.400;9.818;2023-07-29T06:36:15;19.10;99.90
1948;DHT22;974;52.400;9.818;2023-07-29T06:38:40;19.10;99.90
1948;DHT22;974;52.400;9.818;2023-07-29T06:41:07;19.10;99.90
1948;DHT22;974;52.400;9.818;2023-07-29T06:43:32;19.10;99.90
1948;DHT22;974;52.400;9.818;2023-07-29T06:45:58;19.10;99.90
1948;DHT22;974;52.400;9.818;2023-07-29T06:48:24;19.20;99.90
1948;DHT22;974;52.400;9.818;2023-07-29T06:50:50;19.20;99.90
1948;DHT22;974;52.400;9.818;2023-07-29T06:53:16;19.20;99.90
1948;DHT22;974;52.400;9.818;2023-07-29T06:55:42;19.30;99.90
1948;DHT22;974;52.400;9.818;2023-07-29T06:58:07;19.30;99.90
1948;DHT22;974;52.400;9.818;2023-07-29T07:00:33;19.40;99.90
1948;DHT22;974;52.400;9.818;2023-07-29T07:02:58;19.50;99.90
1948;DHT22;974;52.400;9.818;2023-07-29T07:05:24;19.50;99.90
1948;DHT22;974;52.400;9.818;2023-07-29T07:07:50;19.50;99.90
1948;DHT22;974;52.400;9.818;2023-07-29T07:10:15;19.50;99.90
1948;DHT22;974;52.400;9.818;2023-07-29T07:12:41;19.60;99.90
1948;DHT22;974;52.400;9.818;2023-07-29T07:15:10;19.60;99.90
1948;DHT22;974;52.400;9.818;2023-07-29T07:17:35;19.60;99.90
1948;DHT22;974;52.400;9.818;2023-07-29T07:20:01;19.60;99.90
1948;DHT22;974;52.400;9.818;2023-07-29T07:22:27;19.60;99.90
1948;DHT22;974;52.400;9.818;2023-07-29T07:24:52;19.60;99.90
1948;DHT22;974;52.400;9.818;2023-07-29T07:27:21;19.60;99.90
1948;DHT22;974;52.400;9.818;2023-07-29T07:29:49;19.60;99.90
1948;DHT22;974;52.400;9.818;2023-07-29T07:32:15;19.60;99.90
1948;DHT22;974;52.400;9.818;2023-07-29T07:34:43;19.70;99.90
1948;DHT22;974;52.400;9.818;2023-07-29T07:37:09;19.70;99.90
1948;DHT22;974;52.400;9.818;2023-07-29T07:39:34;19.80;99.90
1948;DHT22;974;52.400;9.818;2023-07-29T07:42:00;19.90;99.90
1948;DHT22;974;52.400;9.818;2023-07-29T07:44:25;19.90;99.90
1948;DHT22;974;52.400;9.818;2023-07-29T07:46:52;19.80;99.90
1948;DHT22;974;52.400;9.818;2023-07-29T07:49:19;19.80;99.90
1948;DHT22;974;52.400;9.818;2023-07-29T07:51:47;19.80;99.90
1948;DHT22;974;52.400;9.818;2023-07-29T07:54:13;19.90;99.90
1948;DHT22;974;52.400;9.818;2023-07-29T07:56:38;19.90;99.90
1948;DHT22;974;52.400;9.818;2023-07-29T07:59:04;20.00;99.90
1948;DHT22;974;52.400;9.818;2023-07-29T08:01:37;20.00;99.90
1948;DHT22;974;52.400;9.818;2023-07-29T08:04:06;20.00;99.90
1948;DHT22;974;52.400;9.818;2023-07-29T08:06:32;20.00;99.90
1948;DHT22;974;52.400;9.818;2023-07-29T08:08:58;20.10;99.90
1948;DHT22;974;52.400;9.818;2023-07-29T08:11:25;20.10;99.90
1948;DHT22;974;52.400;9.818;2023-07-29T08:13:51;20.20;99.90
1948;DHT22;974;52.400;9.818;2023-07-29T08:16:17;20.20;99.90
1948;DHT22;974;52.400;9.818;2023-07-29T08:18:42;20.20;99.90
1948;DHT22;974;52.400;9.818;2023-07-29T08:21:08;20.30;99.90
1948;DHT22;974;52.400;9.818;2023-07-29T08:23:35;20.30;99.90
1948;DHT22;974;52.400;9.818;2023-07-29T08:26:03;20.30;99.90
1948;DHT22;974;52.400;9.818;2023-07-29T08:28:31;20.30;99.90
1948;DHT22;974;52.400;9.818;2023-07-29T08:30:57;20.30;99.90
1948;DHT22;974;52.400;9.818;2023-07-29T08:33:22;20.40;99.90
1948;DHT22;974;52.400;9.818;2023-07-29T08:35:51;20.30;99.90
1948;DHT22;974;52.400;9.818;2023-07-29T08:38:20;20.40;99.90
1948;DHT22;974;52.400;9.818;2023-07-29T08:40:54;20.40;99.90
1948;DHT22;974;52.400;9.818;2023-07-29T08:43:28;20.30;99.90
1948;DHT22;974;52.400;9.818;2023-07-29T08:45:58;20.30;99.90
1948;DHT22;974;52.400;9.818;2023-07-29T08:48:35;20.30;99.90
1948;DHT22;974;52.400;9.818;2023-07-29T08:51:04;20.20;99.90
1948;DHT22;974;52.400;9.818;2023-07-29T08:56:17;20.30;99.90
1948;DHT22;974;52.400;9.818;2023-07-29T08:58:43;20.30;99.90
1948;DHT22;974;52.400;9.818;2023-07-29T09:01:08;20.30;99.90
1948;DHT22;974;52.400;9.818;2023-07-29T09:03:34;20.30;99.90
1948;DHT22;974;52.400;9.818;2023-07-29T09:06:02;20.30;99.90
1948;DHT22;974;52.400;9.818;2023-07-29T09:08:28;20.30;99.90
1948;DHT22;974;52.400;9.818;2023-07-29T09:10:54;20.40;99.90
1948;DHT22;974;52.400;9.818;2023-07-29T09:13:25;20.40;99.90
1948;DHT22;974;52.400;9.818;2023-07-29T09:15:55;20.40;99.90
1948;DHT22;974;52.400;9.818;2023-07-29T09:18:27;20.40;99.90
1948;DHT22;974;52.400;9.818;2023-07-29T09:20:53;20.40;99.90
1948;DHT22;974;52.400;9.818;2023-07-29T09:23:18;20.40;99.90
1948;DHT22;974;52.400;9.818;2023-07-29T09:25:46;20.50;99.90
1948;DHT22;974;52.400;9.818;2023-07-29T09:28:15;20.60;99.90
1948;DHT22;974;52.400;9.818;2023-07-29T09:30:42;20.70;99.90
1948;DHT22;974;52.400;9.818;2023-07-29T09:33:09;20.90;99.90
1948;DHT22;974;52.400;9.818;2023-07-29T09:35:36;20.90;99.90
1948;DHT22;974;52.400;9.818;2023-07-29T09:38:05;21.00;99.90
1948;DHT22;974;52.400;9.818;2023-07-29T09:40:38;21.10;99.90
1948;DHT22;974;52.400;9.818;2023-07-29T09:43:04;21.10;99.90
1948;DHT22;974;52.400;9.818;2023-07-29T09:45:33;21.20;99.90
1948;DHT22;974;52.400;9.818;2023-07-29T09:47:59;21.30;99.90
1948;DHT22;974;52.400;9.818;2023-07-29T09:50:25;21.30;99.90
1948;DHT22;974;52.400;9.818;2023-07-29T09:52:52;21.20;99.90
1948;DHT22;974;52.400;9.818;2023-07-29T09:55:20;21.20;99.90
1948;DHT22;974;52.400;9.818;2023-07-29T09:57:46;21.20;99.90
1948;DHT22;974;52.400;9.818;2023-07-29T10:00:15;21.10;99.90
1948;DHT22;974;52.400;9.818;2023-07-29T10:02:43;21.00;99.90
1948;DHT22;974;52.400;9.818;2023-07-29T10:05:09;20.90;99.90
1948;DHT22;974;52.400;9.818;2023-07-29T10:07:39;20.90;99.90
1948;DHT22;974;52.400;9.818;2023-07-29T10:10:08;20.90;99.90
1948;DHT22;974;52.400;9.818;2023-07-29T10:12:35;21.00;99.90
1948;DHT22;974;52.400;9.818;2023-07-29T10:15:05;21.00;99.90
1948;DHT22;974;52.400;9.818;2023-07-29T10:17:35;21.10;99.90
1948;DHT22;974;52.400;9.818;2023-07-29T10:20:02;21.10;99.90
1948;DHT22;974;52.400;9.818;2023-07-29T10:22:33;21.20;99.90
1948;DHT22;974;52.400;9.818;2023-07-29T10:27:49;21.40;99.90
1948;DHT22;974;52.400;9.818;2023-07-29T10:30:17;21.40;99.90
1948;DHT22;974;52.400;9.818;2023-07-29T10:32:44;21.30;99.90
1948;DHT22;974;52.400;9.818;2023-07-29T10:35:17;21.30;99.90
1948;DHT22;974;52.400;9.818;2023-07-29T10:37:49;21.30;99.90
1948;DHT22;974;52.400;9.818;2023-07-29T10:40:19;21.50;99.90
1948;DHT22;974;52.400;9.818;2023-07-29T10:43:01;21.70;99.90
1948;DHT22;974;52.400;9.818;2023-07-29T10:45:39;21.90;99.90
1948;DHT22;974;52.400;9.818;2023-07-29T10:48:13;22.00;99.90
1948;DHT22;974;52.400;9.818;2023-07-29T10:53:47;21.80;99.90
1948;DHT22;974;52.400;9.818;2023-07-29T10:56:30;21.70;99.90
1948;DHT22;974;52.400;9.818;2023-07-29T10:58:58;21.60;99.90
1948;DHT22;974;52.400;9.818;2023-07-29T11:01:30;21.60;99.90
1948;DHT22;974;52.400;9.818;2023-07-29T11:12:43;21.40;99.90
1948;DHT22;974;52.400;9.818;2023-07-29T11:15:19;21.30;99.90
1948;DHT22;974;52.400;9.818;2023-07-29T11:17:57;21.40;99.90
1948;DHT22;974;52.400;9.818;2023-07-29T11:20:30;21.70;99.90
1948;DHT22;974;52.400;9.818;2023-07-29T11:23:00;21.70;99.90
1948;DHT22;974;52.400;9.818;2023-07-29T11:25:33;21.90;99.90
1948;DHT22;974;52.400;9.818;2023-07-29T11:28:02;22.20;99.90
1948;DHT22;974;52.400;9.818;2023-07-29T11:30:28;22.50;99.90
1948;DHT22;974;52.400;9.818;2023-07-29T11:32:58;23.00;99.90
1948;DHT22;974;52.400;9.818;2023-07-29T11:35:24;23.50;99.90
1948;DHT22;974;52.400;9.818;2023-07-29T11:37:51;23.70;99.90
1948;DHT22;974;52.400;9.818;2023-07-29T11:40:18;24.00;99.90
1948;DHT22;974;52.400;9.818;2023-07-29T11:42:45;24.10;99.90
1948;DHT22;974;52.400;9.818;2023-07-29T11:45:16;24.90;99.90
1948;DHT22;974;52.400;9.818;2023-07-29T11:47:42;25.60;99.90
1948;DHT22;974;52.400;9.818;2023-07-29T11:50:12;25.10;99.90
1948;DHT22;974;52.400;9.818;2023-07-29T11:52:43;24.70;99.90
1948;DHT22;974;52.400;9.818;2023-07-29T11:55:09;25.70;99.90
1948;DHT22;974;52.400;9.818;2023-07-29T11:57:37;26.50;99.90
1948;DHT22;974;52.400;9.818;2023-07-29T12:00:09;25.20;99.90
1948;DHT22;974;52.400;9.818;2023-07-29T12:02:42;25.20;99.90
1948;DHT22;974;52.400;9.818;2023-07-29T12:05:13;25.30;99.90
1948;DHT22;974;52.400;9.818;2023-07-29T12:07:39;25.50;99.90
1948;DHT22;974;52.400;9.818;2023-07-29T12:10:06;25.80;99.90
1948;DHT22;974;52.400;9.818;2023-07-29T12:12:50;25.50;99.90
1948;DHT22;974;52.400;9.818;2023-07-29T12:15:27;25.30;99.90
1948;DHT22;974;52.400;9.818;2023-07-29T12:17:54;25.20;99.90
1948;DHT22;974;52.400;9.818;2023-07-29T12:20:29;25.20;99.90
1948;DHT22;974;52.400;9.818;2023-07-29T12:22:56;25.10;99.90
1948;DHT22;974;52.400;9.818;2023-07-29T12:25:28;25.10;99.90
1948;DHT22;974;52.400;9.818;2023-07-29T12:27:54;25.00;99.90
1948;DHT22;974;52.400;9.818;2023-07-29T12:30:23;24.70;99.90
1948;DHT22;974;52.400;9.818;2023-07-29T12:32:50;24.50;99.90
1948;DHT22;974;52.400;9.818;2023-07-29T12:35:19;24.70;99.90
1948;DHT22;974;52.400;9.818;2023-07-29T12:37:44;24.90;99.90
1948;DHT22;974;52.400;9.818;2023-07-29T12:40:26;24.90;99.90
1948;DHT22;974;52.400;9.818;2023-07-29T12:42:53;24.70;99.90
1948;DHT22;974;52.400;9.818;2023-07-29T12:45:19;24.70;99.90
1948;DHT22;974;52.400;9.818;2023-07-29T12:47:45;24.80;99.90
1948;DHT22;974;52.400;9.818;2023-07-29T12:50:13;24.60;99.90
1948;DHT22;974;52.400;9.818;2023-07-29T12:52:39;24.60;99.90
1948;DHT22;974;52.400;9.818;2023-07-29T12:55:05;24.50;99.90
1948;DHT22;974;52.400;9.818;2023-07-29T12:57:31;24.40;99.90
1948;DHT22;974;52.400;9.818;2023-07-29T12:59:57;24.30;99.90
1948;DHT22;974;52.400;9.818;2023-07-29T13:02:22;24.10;99.90
1948;DHT22;974;52.400;9.818;2023-07-29T13:04:48;23.80;99.90
1948;DHT22;974;52.400;9.818;2023-07-29T13:07:16;23.70;99.90
1948;DHT22;974;52.400;9.818;2023-07-29T13:09:42;23.60;99.90
1948;DHT22;974;52.400;9.818;2023-07-29T13:12:08;23.60;99.90
1948;DHT22;974;52.400;9.818;2023-07-29T13:14:33;23.60;99.90
1948;DHT22;974;52.400;9.818;2023-07-29T13:17:02;23.60;99.90
1948;DHT22;974;52.400;9.818;2023-07-29T13:19:28;23.80;99.90
1948;DHT22;974;52.400;9.818;2023-07-29T13:21:53;24.00;99.90
1948;DHT22;974;52.400;9.818;2023-07-29T13:24:19;24.10;99.90
1948;DHT22;974;52.400;9.818;2023-07-29T13:26:44;24.20;99.90
1948;DHT22;974;52.400;9.818;2023-07-29T13:29:10;24.30;99.90
1948;DHT22;974;52.400;9.818;2023-07-29T13:31:35;24.40;99.90
1948;DHT22;974;52.400;9.818;2023-07-29T13:34:04;24.60;99.90
1948;DHT22;974;52.400;9.818;2023-07-29T13:36:29;24.70;99.90
1948;DHT22;974;52.400;9.818;2023-07-29T13:38:55;24.60;99.90
1948;DHT22;974;52.400;9.818;2023-07-29T13:41:20;24.60;99.90
1948;DHT22;974;52.400;9.818;2023-07-29T13:43:46;24.50;99.90
1948;DHT22;974;52.400;9.818;2023-07-29T13:46:11;24.40;99.90
1948;DHT22;974;52.400;9.818;2023-07-29T13:48:37;24.50;99.90
1948;DHT22;974;52.400;9.818;2023-07-29T13:51:03;24.70;99.90
1948;DHT22;974;52.400;9.818;2023-07-29T13:53:31;24.70;99.90
1948;DHT22;974;52.400;9.818;2023-07-29T13:55:56;24.70;99.90
1948;DHT22;974;52.400;9.818;2023-07-29T13:58:22;24.70;99.90
1948;DHT22;974;52.400;9.818;2023-07-29T14:00:50;24.70;99.90
1948;DHT22;974;52.400;9.818;2023-07-29T14:03:16;24.60;99.90
1948;DHT22;974;52.400;9.818;2023-07-29T14:05:42;24.50;99.90
1948;DHT22;974;52.400;9.818;2023-07-29T14:08:07;24.40;99.90
1948;DHT22;974;52.400;9.818;2023-07-29T14:10:33;24.40;99.90
1948;DHT22;974;52.400;9.818;2023-07-29T14:12:58;24.40;99.90
1948;DHT22;974;52.400;9.818;2023-07-29T14:15:24;24.40;99.90
1948;DHT22;974;52.400;9.818;2023-07-29T14:17:49;24.40;99.90
1948;DHT22;974;52.400;9.818;2023-07-29T14:20:15;24.40;99.90
1948;DHT22;974;52.400;9.818;2023-07-29T14:22:41;24.30;99.90
1948;DHT22;974;52.400;9.818;2023-07-29T14:25:07;24.20;99.90
1948;DHT22;974;52.400;9.818;2023-07-29T14:27:32;24.20;99.90
1948;DHT22;974;52.400;9.818;2023-07-29T14:29:58;24.20;99.90
1948;DHT22;974;52.400;9.818;2023-07-29T14:32:24;24.20;99.90
1948;DHT22;974;52.400;9.818;2023-07-29T14:34:49;24.30;99.90
1948;DHT22;974;52.400;9.818;2023-07-29T14:37:15;24.30;99.90
1948;DHT22;974;52.400;9.818;2023-07-29T14:39:41;24.30;99.90
1948;DHT22;974;52.400;9.818;2023-07-29T14:42:06;24.30;99.90
1948;DHT22;974;52.400;9.818;2023-07-29T14:44:33;24.40;99.90
1948;DHT22;974;52.400;9.818;2023-07-29T14:46:58;24.40;99.90
1948;DHT22;974;52.400;9.818;2023-07-29T14:49:24;24.40;99.90
1948;DHT22;974;52.400;9.818;2023-07-29T14:51:49;24.40;99.90
1948;DHT22;974;52.400;9.818;2023-07-29T14:54:18;24.30;99.90
1948;DHT22;974;52.400;9.818;2023-07-29T14:56:44;24.20;99.90
1948;DHT22;974;52.400;9.818;2023-07-29T14:59:09;24.30;99.90
1948;DHT22;974;52.400;9.818;2023-07-29T15:01:35;24.20;99.90
1948;DHT22;974;52.400;9.818;2023-07-29T15:04:04;24.20;99.90
1948;DHT22;974;52.400;9.818;2023-07-29T15:06:29;24.20;99.90
1948;DHT22;974;52.400;9.818;2023-07-29T15:08:55;24.20;99.90
1948;DHT22;974;52.400;9.818;2023-07-29T15:11:24;24.10;99.90
1948;DHT22;974;52.400;9.818;2023-07-29T15:13:49;24.20;99.90
1948;DHT22;974;52.400;9.818;2023-07-29T15:16:15;24.20;99.90
1948;DHT22;974;52.400;9.818;2023-07-29T15:18:40;24.20;99.90
1948;DHT22;974;52.400;9.818;2023-07-29T15:21:06;24.20;99.90
1948;DHT22;974;52.400;9.818;2023-07-29T15:23:31;24.20;99.90
1948;DHT22;974;52.400;9.818;2023-07-29T15:25:57;24.20;99.90
1948;DHT22;974;52.400;9.818;2023-07-29T15:28:23;24.10;99.90
1948;DHT22;974;52.400;9.818;2023-07-29T15:30:48;24.10;99.90
1948;DHT22;974;52.400;9.818;2023-07-29T15:33:14;24.10;99.90
1948;DHT22;974;52.400;9.818;2023-07-29T15:35:39;24.10;99.90
1948;DHT22;974;52.400;9.818;2023-07-29T15:38:06;24.10;99.90
1948;DHT22;974;52.400;9.818;2023-07-29T15:40:32;24.10;99.90
1948;DHT22;974;52.400;9.818;2023-07-29T15:42:58;24.00;99.90
1948;DHT22;974;52.400;9.818;2023-07-29T15:45:23;23.90;99.90
1948;DHT22;974;52.400;9.818;2023-07-29T15:47:49;23.80;99.90
1948;DHT22;974;52.400;9.818;2023-07-29T15:50:14;23.80;99.90
1948;DHT22;974;52.400;9.818;2023-07-29T15:52:43;23.70;99.90
1948;DHT22;974;52.400;9.818;2023-07-29T15:55:09;23.70;99.90
1948;DHT22;974;52.400;9.818;2023-07-29T15:57:34;23.70;99.90
1948;DHT22;974;52.400;9.818;2023-07-29T16:00:00;23.70;99.90
1948;DHT22;974;52.400;9.818;2023-07-29T16:02:26;23.70;99.90
1948;DHT22;974;52.400;9.818;2023-07-29T16:04:51;23.70;99.90
1948;DHT22;974;52.400;9.818;2023-07-29T16:07:17;23.80;99.90
1948;DHT22;974;52.400;9.818;2023-07-29T16:09:42;23.80;99.90
1948;DHT22;974;52.400;9.818;2023-07-29T16:12:08;23.80;99.90
1948;DHT22;974;52.400;9.818;2023-07-29T16:14:34;23.80;99.90
1948;DHT22;974;52.400;9.818;2023-07-29T16:16:59;23.90;99.90
1948;DHT22;974;52.400;9.818;2023-07-29T16:19:28;23.80;99.90
1948;DHT22;974;52.400;9.818;2023-07-29T16:21:54;23.80;99.90
1948;DHT22;974;52.400;9.818;2023-07-29T16:24:20;23.70;99.90
1948;DHT22;974;52.400;9.818;2023-07-29T16:26:49;23.60;99.90
1948;DHT22;974;52.400;9.818;2023-07-29T16:29:14;23.70;99.90
1948;DHT22;974;52.400;9.818;2023-07-29T16:31:40;23.80;99.90
1948;DHT22;974;52.400;9.818;2023-07-29T16:34:12;23.70;99.90